createdAt,value
2017-12-12T00:01:38.604Z,0.93
2017-12-12T00:04:06.471Z,0.90
2017-12-12T00:06:34.338Z,1.10
2017-12-12T00:09:02.206Z,0.90
2017-12-12T00:11:30.073Z,0.88
2017-12-12T00:13:57.943Z,1.02
2017-12-12T00:16:25.807Z,0.82
2017-12-12T00:18:53.675Z,0.90
2017-12-12T00:21:21.545Z,0.80
2017-12-12T00:23:49.410Z,0.90
2017-12-12T00:26:17.276Z,0.80
2017-12-12T00:28:45.144Z,0.90
2017-12-12T00:31:13.014Z,0.82
2017-12-12T00:33:40.905Z,1.10
2017-12-12T00:36:09.463Z,0.80
2017-12-12T00:38:37.331Z,1.00
2017-12-12T00:41:05.199Z,0.90
2017-12-12T00:43:32.995Z,1.62
2017-12-12T00:46:00.831Z,3.08
2017-12-12T00:48:28.697Z,1.70
2017-12-12T00:50:56.564Z,0.90
2017-12-12T00:53:24.434Z,1.15
2017-12-12T00:55:52.298Z,1.00
2017-12-12T00:58:20.166Z,1.15
2017-12-12T01:00:48.034Z,0.90
2017-12-12T01:03:15.901Z,0.93
2017-12-12T01:05:43.768Z,1.00
2017-12-12T01:08:11.635Z,0.90
2017-12-12T01:10:39.502Z,1.10
2017-12-12T01:13:07.370Z,1.05
2017-12-12T01:15:35.237Z,0.90
2017-12-12T01:18:03.105Z,1.00
2017-12-12T01:20:30.972Z,0.93
2017-12-12T01:22:58.839Z,1.20
2017-12-12T01:25:26.707Z,0.80
2017-12-12T01:27:54.574Z,0.90
2017-12-12T01:30:22.442Z,0.82
2017-12-12T01:32:50.308Z,1.00
2017-12-12T01:35:18.176Z,0.90
2017-12-12T01:37:46.045Z,1.20
2017-12-12T01:40:13.911Z,0.88
2017-12-12T01:42:41.782Z,0.90
2017-12-12T01:45:09.646Z,1.35
2017-12-12T01:47:37.513Z,0.98
2017-12-12T01:50:05.380Z,1.00
2017-12-12T01:52:33.248Z,1.02
2017-12-12T01:55:01.115Z,0.90
2017-12-12T01:57:28.982Z,0.90
2017-12-12T01:59:56.849Z,3.25
2017-12-12T02:02:24.716Z,3.05
2017-12-12T02:04:52.584Z,1.37
2017-12-12T02:07:20.451Z,1.90
2017-12-12T02:09:48.318Z,2.33
2017-12-12T02:12:16.187Z,2.40
2017-12-12T02:14:44.054Z,2.45
2017-12-12T02:17:11.920Z,2.30
2017-12-12T02:19:39.788Z,2.70
2017-12-12T02:22:07.672Z,2.75
2017-12-12T02:24:35.522Z,2.30
2017-12-12T02:27:03.388Z,2.70
2017-12-12T02:29:31.256Z,1.92
2017-12-12T02:31:59.124Z,2.85
2017-12-12T02:34:26.993Z,3.15
2017-12-12T02:36:54.861Z,3.17
2017-12-12T02:39:22.727Z,2.58
2017-12-12T02:41:50.594Z,3.00
2017-12-12T02:44:18.461Z,3.05
2017-12-12T02:46:46.329Z,3.33
2017-12-12T02:49:14.196Z,3.80
2017-12-12T02:51:42.067Z,3.08
2017-12-12T02:54:09.930Z,3.05
2017-12-12T02:56:37.798Z,3.67
2017-12-12T02:59:05.664Z,3.25
2017-12-12T03:01:33.532Z,3.20
2017-12-12T03:04:01.327Z,2.95
2017-12-12T03:06:29.273Z,2.47
2017-12-12T03:08:57.070Z,3.67
2017-12-12T03:11:25.717Z,3.20
2017-12-12T03:13:53.586Z,3.55
2017-12-12T03:16:21.452Z,2.97
2017-12-12T03:18:49.320Z,3.08
2017-12-12T03:21:17.117Z,3.25
2017-12-12T03:23:45.771Z,3.45
2017-12-12T03:26:13.641Z,3.30
2017-12-12T03:28:41.506Z,3.37
2017-12-12T03:31:09.375Z,2.95
2017-12-12T03:33:37.242Z,3.30
2017-12-12T03:36:05.107Z,3.20
2017-12-12T03:38:32.970Z,2.97
2017-12-12T03:41:00.836Z,3.53
2017-12-12T03:43:28.710Z,3.25
2017-12-12T03:45:56.577Z,4.18
2017-12-12T03:48:24.436Z,4.30
2017-12-12T03:50:52.312Z,3.90
2017-12-12T03:53:20.179Z,3.87
2017-12-12T03:55:48.046Z,4.40
2017-12-12T03:58:15.914Z,4.30
2017-12-12T04:00:43.780Z,4.05
2017-12-12T04:03:12.570Z,3.72
2017-12-12T04:05:40.437Z,3.97
2017-12-12T04:08:08.309Z,3.92
2017-12-12T04:10:36.178Z,3.03
2017-12-12T04:13:04.043Z,3.00
2017-12-12T04:15:31.906Z,3.10
2017-12-12T04:17:59.773Z,2.95
2017-12-12T04:20:27.640Z,2.83
2017-12-12T04:22:55.508Z,2.87
2017-12-12T04:25:23.393Z,2.85
2017-12-12T04:27:51.244Z,2.58
2017-12-12T04:30:19.109Z,2.70
2017-12-12T04:32:46.977Z,2.97
2017-12-12T04:35:14.845Z,3.03
2017-12-12T04:37:42.712Z,2.72
2017-12-12T04:40:10.578Z,2.47
2017-12-12T04:42:38.447Z,2.53
2017-12-12T04:45:06.314Z,2.78
2017-12-12T04:47:34.184Z,2.70
2017-12-12T04:50:02.049Z,2.70
2017-12-12T04:52:29.916Z,2.80
2017-12-12T04:54:57.783Z,2.90
2017-12-12T04:57:25.651Z,2.80
2017-12-12T04:59:53.518Z,3.20
2017-12-12T05:02:21.385Z,6.70
2017-12-12T05:04:49.260Z,4.10
2017-12-12T05:07:17.121Z,3.10
2017-12-12T05:09:44.987Z,2.47
2017-12-12T05:12:12.853Z,2.65
2017-12-12T05:14:40.721Z,2.80
2017-12-12T05:17:08.589Z,2.95
2017-12-12T05:19:36.456Z,2.45
2017-12-12T05:22:04.324Z,2.80
2017-12-12T05:24:32.190Z,3.17
2017-12-12T05:26:59.981Z,3.12
2017-12-12T05:29:27.823Z,3.22
2017-12-12T05:31:55.691Z,2.78
2017-12-12T05:34:23.557Z,3.00
2017-12-12T05:36:51.425Z,3.50
2017-12-12T05:39:19.292Z,3.60
2017-12-12T05:41:47.159Z,3.03
2017-12-12T05:44:14.958Z,2.90
2017-12-12T05:46:43.610Z,3.03
2017-12-12T05:49:11.583Z,3.00
2017-12-12T05:51:39.449Z,2.80
2017-12-12T05:54:07.316Z,2.83
2017-12-12T05:56:35.183Z,3.50
2017-12-12T05:59:03.050Z,3.28
2017-12-12T06:01:30.917Z,2.70
2017-12-12T06:03:58.785Z,3.00
2017-12-12T06:06:26.651Z,2.80
2017-12-12T06:08:54.519Z,2.15
2017-12-12T06:11:22.386Z,2.83
2017-12-12T06:13:50.253Z,2.80
2017-12-12T06:16:18.122Z,7.65
2017-12-12T06:18:45.988Z,8.55
2017-12-12T06:21:13.856Z,10.68
2017-12-12T06:23:41.723Z,5.40
2017-12-12T06:26:09.591Z,3.00
2017-12-12T06:28:37.458Z,3.42
2017-12-12T06:31:05.324Z,3.33
2017-12-12T06:33:33.192Z,3.45
2017-12-12T06:36:01.060Z,3.15
2017-12-12T06:38:28.927Z,3.00
2017-12-12T06:40:56.794Z,3.00
2017-12-12T06:43:24.666Z,2.78
2017-12-12T06:45:52.529Z,3.22
2017-12-12T06:48:20.396Z,3.42
2017-12-12T06:50:48.264Z,2.80
2017-12-12T06:53:16.131Z,3.60
2017-12-12T06:55:43.998Z,2.95
2017-12-12T06:58:11.865Z,3.25
2017-12-12T07:00:39.734Z,3.20
2017-12-12T07:03:07.600Z,2.90
2017-12-12T07:05:35.467Z,3.20
2017-12-12T07:08:03.390Z,3.37
2017-12-12T07:10:32.021Z,3.03
2017-12-12T07:13:00.708Z,2.97
2017-12-12T07:15:28.575Z,3.05
2017-12-12T07:17:56.441Z,3.08
2017-12-12T07:20:24.310Z,3.10
2017-12-12T07:22:52.177Z,3.55
2017-12-12T07:25:20.044Z,3.15
2017-12-12T07:27:47.911Z,3.40
2017-12-12T07:30:15.779Z,3.72
2017-12-12T07:32:43.646Z,2.72
2017-12-12T07:35:11.513Z,3.22
2017-12-12T07:37:39.380Z,3.33
2017-12-12T07:40:07.248Z,3.25
2017-12-12T07:42:35.115Z,4.00
2017-12-12T07:45:02.982Z,3.45
2017-12-12T07:47:30.860Z,2.97
2017-12-12T07:49:58.716Z,2.70
2017-12-12T07:52:26.585Z,2.87
2017-12-12T07:54:54.451Z,3.20
2017-12-12T07:57:22.319Z,3.70
2017-12-12T07:59:50.186Z,3.10
2017-12-12T08:02:18.054Z,3.10
2017-12-12T08:04:45.923Z,2.75
2017-12-12T08:07:13.788Z,2.65
2017-12-12T08:09:41.655Z,2.72
2017-12-12T08:12:09.522Z,3.40
2017-12-12T08:14:37.390Z,3.08
2017-12-12T08:17:05.258Z,3.30
2017-12-12T08:19:33.127Z,3.20
2017-12-12T08:22:00.996Z,2.85
2017-12-12T08:24:28.863Z,2.87
2017-12-12T08:26:56.729Z,3.28
2017-12-12T08:29:24.595Z,3.20
2017-12-12T08:31:52.467Z,3.28
2017-12-12T08:34:20.329Z,3.35
2017-12-12T08:36:48.196Z,3.60
2017-12-12T08:39:16.063Z,2.78
2017-12-12T08:41:43.930Z,3.40
2017-12-12T08:44:11.798Z,3.00
2017-12-12T08:46:39.665Z,3.03
2017-12-12T08:49:07.536Z,2.15
2017-12-12T08:51:35.403Z,2.30
2017-12-12T08:54:03.267Z,2.75
2017-12-12T08:56:31.134Z,2.70
2017-12-12T08:58:59.002Z,2.35
2017-12-12T09:01:26.869Z,2.33
2017-12-12T09:03:54.838Z,3.00
2017-12-12T09:06:22.705Z,3.12
2017-12-12T09:08:50.573Z,3.20
2017-12-12T09:11:18.441Z,3.10
2017-12-12T09:13:46.308Z,3.58
2017-12-12T09:16:14.175Z,3.65
2017-12-12T09:18:42.042Z,3.30
2017-12-12T09:21:09.910Z,3.10
2017-12-12T09:23:37.777Z,2.65
2017-12-12T09:26:05.644Z,2.60
2017-12-12T09:28:33.511Z,3.03
2017-12-12T09:31:01.380Z,2.70
2017-12-12T09:33:29.246Z,3.15
2017-12-12T09:35:57.116Z,2.40
2017-12-12T09:38:24.982Z,2.05
2017-12-12T09:40:52.849Z,2.10
2017-12-12T09:43:20.716Z,2.87
2017-12-12T09:45:48.582Z,2.45
2017-12-12T09:48:16.451Z,5.03
2017-12-12T09:50:44.324Z,2.10
2017-12-12T09:53:12.184Z,2.30
2017-12-12T09:55:40.052Z,1.95
2017-12-12T09:58:07.919Z,2.10
2017-12-12T10:00:35.787Z,2.17
2017-12-12T10:03:03.656Z,2.40
2017-12-12T10:05:31.522Z,2.37
2017-12-12T10:07:59.389Z,2.15
2017-12-12T10:10:27.256Z,2.55
2017-12-12T10:12:55.123Z,3.17
2017-12-12T10:15:22.991Z,2.62
2017-12-12T10:17:50.858Z,2.67
2017-12-12T10:20:18.725Z,1.80
2017-12-12T10:22:46.593Z,2.50
2017-12-12T10:25:14.460Z,2.05
2017-12-12T10:27:42.327Z,2.05
2017-12-12T10:30:10.195Z,2.53
2017-12-12T10:32:38.062Z,2.30
2017-12-12T10:35:05.929Z,1.87
2017-12-12T10:37:33.797Z,2.20
2017-12-12T10:40:01.663Z,2.50
2017-12-12T10:42:29.531Z,1.90
2017-12-12T10:44:57.326Z,1.75
2017-12-12T10:47:25.265Z,2.20
2017-12-12T10:49:53.133Z,2.70
2017-12-12T10:52:21.000Z,2.55
2017-12-12T10:54:48.868Z,1.92
2017-12-12T10:57:16.734Z,1.85
2017-12-12T10:59:44.602Z,1.90
2017-12-12T11:02:12.469Z,2.00
2017-12-12T11:04:40.337Z,9.35
2017-12-12T11:07:08.204Z,2.70
2017-12-12T11:09:36.072Z,2.83
2017-12-12T11:12:03.938Z,2.50
2017-12-12T11:14:31.806Z,3.97
2017-12-12T11:16:59.674Z,3.42
2017-12-12T11:19:27.541Z,3.00
2017-12-12T11:21:55.408Z,2.15
2017-12-12T11:24:23.275Z,2.45
2017-12-12T11:26:51.146Z,2.92
2017-12-12T11:29:19.010Z,1.70
2017-12-12T11:31:46.877Z,2.53
2017-12-12T11:34:14.745Z,2.35
2017-12-12T11:36:42.612Z,2.50
2017-12-12T11:39:10.479Z,2.30
2017-12-12T11:41:38.347Z,1.87
2017-12-12T11:44:06.214Z,2.00
2017-12-12T11:46:34.081Z,2.40
2017-12-12T11:49:01.856Z,2.30
2017-12-12T11:51:29.714Z,1.60
2017-12-12T11:53:57.579Z,2.08
2017-12-12T11:56:25.448Z,2.20
2017-12-12T11:58:53.315Z,1.90
2017-12-12T12:01:21.176Z,2.00
2017-12-12T12:03:49.050Z,1.98
2017-12-12T12:06:16.917Z,2.12
2017-12-12T12:08:44.785Z,1.90
2017-12-12T12:11:12.652Z,2.20
2017-12-12T12:13:40.519Z,2.15
2017-12-12T12:16:08.387Z,2.42
2017-12-12T12:18:36.253Z,2.40
2017-12-12T12:21:04.121Z,2.60
2017-12-12T12:23:31.988Z,3.08
2017-12-12T12:25:59.856Z,2.00
2017-12-12T12:28:27.723Z,3.80
2017-12-12T12:30:55.590Z,3.53
2017-12-12T12:33:23.456Z,3.62
2017-12-12T12:35:51.324Z,5.60
2017-12-12T12:38:19.192Z,6.30
2017-12-12T12:40:47.058Z,18.95
2017-12-12T12:43:14.926Z,4.07
2017-12-12T12:45:42.794Z,11.32
2017-12-12T12:48:10.661Z,6.22
2017-12-12T12:50:38.528Z,3.90
2017-12-12T12:53:06.396Z,3.35
2017-12-12T12:55:34.263Z,2.95
2017-12-12T12:58:02.131Z,3.25
2017-12-12T13:00:29.998Z,3.25
2017-12-12T13:02:57.865Z,3.45
2017-12-12T13:05:25.733Z,3.60
2017-12-12T13:07:53.602Z,3.75
2017-12-12T13:10:21.467Z,4.30
2017-12-12T13:12:49.337Z,3.62
2017-12-12T13:15:17.201Z,4.30
2017-12-12T13:17:45.072Z,3.20
2017-12-12T13:20:12.936Z,2.65
2017-12-12T13:22:40.803Z,2.95
2017-12-12T13:25:08.671Z,15.32
2017-12-12T13:27:36.538Z,4.00
2017-12-12T13:30:04.406Z,3.90
2017-12-12T13:32:32.273Z,3.37
2017-12-12T13:35:00.147Z,2.60
2017-12-12T13:37:28.826Z,2.40
2017-12-12T13:39:56.693Z,2.42
2017-12-12T13:42:24.560Z,2.20
2017-12-12T13:44:52.354Z,2.70
2017-12-12T13:47:20.196Z,2.50
2017-12-12T13:49:48.061Z,2.10
2017-12-12T13:52:15.928Z,1.95
2017-12-12T13:54:43.823Z,2.10
2017-12-12T13:57:12.481Z,2.20
2017-12-12T13:59:40.349Z,1.90
2017-12-12T14:02:08.223Z,1.80
2017-12-12T14:04:36.083Z,1.60
2017-12-12T14:07:03.949Z,1.95
2017-12-12T14:09:31.817Z,1.70
2017-12-12T14:11:59.615Z,1.73
2017-12-12T14:14:27.449Z,2.00
2017-12-12T14:16:55.316Z,1.55
2017-12-12T14:19:23.184Z,1.90
2017-12-12T14:21:51.051Z,1.80
2017-12-12T14:24:18.918Z,1.60
2017-12-12T14:26:46.785Z,2.10
2017-12-12T14:29:14.655Z,1.70
2017-12-12T14:31:42.520Z,1.70
2017-12-12T14:34:10.387Z,1.75
2017-12-12T14:36:38.255Z,2.60
2017-12-12T14:39:06.122Z,2.05
2017-12-12T14:41:33.989Z,1.92
2017-12-12T14:44:01.857Z,1.98
2017-12-12T14:46:29.725Z,2.33
2017-12-12T14:48:57.591Z,4.15
2017-12-12T14:51:25.459Z,4.05
2017-12-12T14:53:53.326Z,5.53
2017-12-12T14:56:21.194Z,2.30
2017-12-12T14:58:49.060Z,2.28
2017-12-12T15:01:16.927Z,2.40
2017-12-12T15:03:44.795Z,2.17
2017-12-12T15:06:12.663Z,1.92
2017-12-12T15:08:40.529Z,2.25
2017-12-12T15:11:08.397Z,2.30
2017-12-12T15:13:36.263Z,2.80
2017-12-12T15:16:04.132Z,2.10
2017-12-12T15:18:31.999Z,2.05
2017-12-12T15:20:59.865Z,1.85
2017-12-12T15:23:27.733Z,2.35
2017-12-12T15:25:55.601Z,2.40
2017-12-12T15:28:23.467Z,2.60
2017-12-12T15:30:51.334Z,2.40
2017-12-12T15:33:19.202Z,2.35
2017-12-12T15:35:47.068Z,2.45
2017-12-12T15:38:14.936Z,2.20
2017-12-12T15:40:42.804Z,2.12
2017-12-12T15:43:10.672Z,2.42
2017-12-12T15:45:38.543Z,3.35
2017-12-12T15:48:06.405Z,2.80
2017-12-12T15:50:34.272Z,2.60
2017-12-12T15:53:02.140Z,2.03
2017-12-12T15:55:30.008Z,2.15
2017-12-12T15:57:57.874Z,2.00
2017-12-12T16:00:25.741Z,1.95
2017-12-12T16:02:53.611Z,2.22
2017-12-12T16:05:21.477Z,2.10
2017-12-12T16:07:49.343Z,2.50
2017-12-12T16:10:17.210Z,2.28
2017-12-12T16:12:45.077Z,3.12
2017-12-12T16:15:12.944Z,2.83
2017-12-12T16:17:40.812Z,3.75
2017-12-12T16:20:08.679Z,4.93
2017-12-12T16:22:36.547Z,2.90
2017-12-12T16:25:04.414Z,3.70
2017-12-12T16:27:32.281Z,6.15
2017-12-12T16:30:00.148Z,6.45
2017-12-12T16:32:28.016Z,5.20
2017-12-12T16:34:55.986Z,6.78
2017-12-12T16:37:23.853Z,9.15
2017-12-12T16:39:51.720Z,7.70
2017-12-12T16:42:19.587Z,7.75
2017-12-12T16:44:47.382Z,5.03
2017-12-12T16:47:15.220Z,3.42
2017-12-12T16:49:43.087Z,3.50
2017-12-12T16:52:10.954Z,2.58
2017-12-12T16:54:38.822Z,2.85
2017-12-12T16:57:06.689Z,2.10
2017-12-12T16:59:34.559Z,2.58
2017-12-12T17:02:02.423Z,3.12
2017-12-12T17:04:30.290Z,3.50
2017-12-12T17:06:58.157Z,3.40
2017-12-12T17:09:26.025Z,3.67
2017-12-12T17:11:53.892Z,3.60
2017-12-12T17:14:21.760Z,2.70
2017-12-12T17:16:49.556Z,2.92
2017-12-12T17:19:18.109Z,2.92
2017-12-12T17:21:45.976Z,2.55
2017-12-12T17:24:14.150Z,2.58
2017-12-12T17:26:43.264Z,2.95
2017-12-12T17:29:11.831Z,2.28
2017-12-12T17:31:39.701Z,2.50
2017-12-12T17:34:07.667Z,2.97
2017-12-12T17:36:35.534Z,2.80
2017-12-12T17:39:03.719Z,2.62
2017-12-12T17:41:38.367Z,3.28
2017-12-12T17:44:11.509Z,3.40
2017-12-12T17:46:39.395Z,2.97
2017-12-12T17:49:07.261Z,3.37
2017-12-12T17:51:35.129Z,8.15
2017-12-12T17:54:02.996Z,5.53
2017-12-12T17:56:30.864Z,3.45
2017-12-12T17:58:58.731Z,3.65
2017-12-12T18:01:26.597Z,3.12
2017-12-12T18:03:54.465Z,2.67
2017-12-12T18:06:22.333Z,2.60
2017-12-12T18:08:50.204Z,2.80
2017-12-12T18:11:18.154Z,2.30
2017-12-12T18:13:46.037Z,2.60
2017-12-12T18:16:13.905Z,2.80
2017-12-12T18:18:41.772Z,2.80
2017-12-12T18:21:09.639Z,2.67
2017-12-12T18:23:37.506Z,3.05
2017-12-12T18:26:05.375Z,3.72
2017-12-12T18:28:33.243Z,3.03
2017-12-12T18:31:01.110Z,2.50
2017-12-12T18:33:28.975Z,3.08
2017-12-12T18:35:56.844Z,2.75
2017-12-12T18:38:24.710Z,2.83
2017-12-12T18:40:52.577Z,2.30
2017-12-12T18:43:20.445Z,2.60
2017-12-12T18:45:48.311Z,2.90
2017-12-12T18:48:16.182Z,2.62
2017-12-12T18:50:44.049Z,2.42
2017-12-12T18:53:11.916Z,3.00
2017-12-12T18:55:39.784Z,3.30
2017-12-12T18:58:07.651Z,2.85
2017-12-12T19:00:35.518Z,3.22
2017-12-12T19:03:03.384Z,3.67
2017-12-12T19:05:31.250Z,3.60
2017-12-12T19:07:59.120Z,2.90
2017-12-12T19:10:26.985Z,3.33
2017-12-12T19:12:54.852Z,3.28
2017-12-12T19:15:22.721Z,4.00
2017-12-12T19:17:50.587Z,3.12
2017-12-12T19:20:18.455Z,3.25
2017-12-12T19:22:46.324Z,3.42
2017-12-12T19:25:14.189Z,3.33
2017-12-12T19:27:42.057Z,3.30
2017-12-12T19:30:09.924Z,3.45
2017-12-12T19:32:37.791Z,3.67
2017-12-12T19:35:05.659Z,3.70
2017-12-12T19:37:33.526Z,3.92
2017-12-12T19:40:01.393Z,4.03
2017-12-12T19:42:29.262Z,4.68
2017-12-12T19:44:57.129Z,5.03
2017-12-12T19:47:24.996Z,4.05
2017-12-12T19:49:52.863Z,4.20
2017-12-12T19:52:20.729Z,3.90
2017-12-12T19:54:48.600Z,3.28
2017-12-12T19:57:16.464Z,4.15
2017-12-12T19:59:44.332Z,4.70
2017-12-12T20:02:12.199Z,4.35
2017-12-12T20:04:40.067Z,4.45
2017-12-12T20:07:07.934Z,4.50
2017-12-12T20:09:35.802Z,4.80
2017-12-12T20:12:03.668Z,5.90
2017-12-12T20:14:31.536Z,4.10
2017-12-12T20:16:59.405Z,4.50
2017-12-12T20:19:27.272Z,3.97
2017-12-12T20:21:55.137Z,4.62
2017-12-12T20:24:23.107Z,4.45
2017-12-12T20:26:50.975Z,4.72
2017-12-12T20:29:18.846Z,5.00
2017-12-12T20:31:46.711Z,4.43
2017-12-12T20:34:14.577Z,4.05
2017-12-12T20:36:42.445Z,4.10
2017-12-12T20:39:10.313Z,5.00
2017-12-12T20:41:38.181Z,4.72
2017-12-12T20:44:06.046Z,5.85
2017-12-12T20:46:33.915Z,5.35
2017-12-12T20:49:01.784Z,4.80
2017-12-12T20:51:29.649Z,4.85
2017-12-12T20:53:57.519Z,5.10
2017-12-12T20:56:25.384Z,4.50
2017-12-12T20:58:53.252Z,4.85
2017-12-12T21:01:21.118Z,5.55
2017-12-12T21:03:48.985Z,5.10
2017-12-12T21:06:16.852Z,6.10
2017-12-12T21:08:44.719Z,5.90
2017-12-12T21:11:12.587Z,5.95
2017-12-12T21:13:40.455Z,5.90
2017-12-12T21:16:08.324Z,5.72
2017-12-12T21:18:36.194Z,5.10
2017-12-12T21:21:04.053Z,5.95
2017-12-12T21:23:31.927Z,5.82
2017-12-12T21:25:59.798Z,5.75
2017-12-12T21:28:27.658Z,5.70
2017-12-12T21:30:55.525Z,5.53
2017-12-12T21:33:24.006Z,7.43
2017-12-12T21:35:51.874Z,5.97
2017-12-12T21:38:19.740Z,11.30
2017-12-12T21:40:47.608Z,15.68
2017-12-12T21:43:15.476Z,6.12
2017-12-12T21:45:43.344Z,6.10
2017-12-12T21:48:11.211Z,6.00
2017-12-12T21:50:39.077Z,6.03
2017-12-12T21:53:06.945Z,6.80
2017-12-12T21:55:34.813Z,50.90
2017-12-12T21:58:02.680Z,43.35
2017-12-12T22:00:30.547Z,19.20
2017-12-12T22:02:58.414Z,8.85
2017-12-12T22:05:26.589Z,6.22
2017-12-12T22:07:54.456Z,7.60
2017-12-12T22:10:22.324Z,6.93
2017-12-12T22:12:50.191Z,6.78
2017-12-12T22:15:18.058Z,7.45
2017-12-12T22:17:45.924Z,6.78
2017-12-12T22:20:13.793Z,6.40
2017-12-12T22:22:41.660Z,6.80
2017-12-12T22:25:09.527Z,6.97
2017-12-12T22:27:37.423Z,6.47
2017-12-12T22:30:06.082Z,6.45
2017-12-12T22:32:33.948Z,6.57
2017-12-12T22:35:01.816Z,6.12
2017-12-12T22:37:29.683Z,6.12
2017-12-12T22:39:57.550Z,6.90
2017-12-12T22:42:25.418Z,6.85
2017-12-12T22:44:53.287Z,7.43
2017-12-12T22:47:21.153Z,7.60
2017-12-12T22:49:49.019Z,7.10
2017-12-12T22:52:16.887Z,7.18
2017-12-12T22:54:44.753Z,7.32
2017-12-12T22:57:12.622Z,6.82
2017-12-12T22:59:40.489Z,6.55
2017-12-12T23:02:08.356Z,7.75
2017-12-12T23:04:36.227Z,6.93
2017-12-12T23:07:04.093Z,7.90
2017-12-12T23:09:31.958Z,7.80
2017-12-12T23:11:59.828Z,6.35
2017-12-12T23:14:27.692Z,6.90
2017-12-12T23:16:55.560Z,6.45
2017-12-12T23:19:23.427Z,6.45
2017-12-12T23:21:51.294Z,6.55
2017-12-12T23:24:19.162Z,6.57
2017-12-12T23:26:47.029Z,6.50
2017-12-12T23:29:14.897Z,7.15
2017-12-12T23:31:42.763Z,6.43
2017-12-12T23:34:10.631Z,8.30
2017-12-12T23:36:38.497Z,7.07
2017-12-12T23:39:06.365Z,8.13
2017-12-12T23:41:34.237Z,11.88
2017-12-12T23:44:02.100Z,7.47
2017-12-12T23:46:29.969Z,12.25
2017-12-12T23:48:57.835Z,17.90
2017-12-12T23:51:25.702Z,9.93
2017-12-12T23:53:53.569Z,6.62
2017-12-12T23:56:21.437Z,6.55
2017-12-12T23:58:49.319Z,6.75
